createdAt,value
2018-05-26T00:00:38.898Z,16.90
2018-05-26T00:03:10.443Z,16.80
2018-05-26T00:05:38.837Z,16.80
2018-05-26T00:08:07.231Z,16.70
2018-05-26T00:10:34.885Z,16.70
2018-05-26T00:13:02.605Z,16.90
2018-05-26T00:15:30.718Z,16.80
2018-05-26T00:17:58.892Z,16.80
2018-05-26T00:20:26.517Z,16.80
2018-05-26T00:22:59.984Z,16.90
2018-05-26T00:25:27.674Z,16.80
2018-05-26T00:27:56.285Z,16.70
2018-05-26T00:30:25.771Z,16.50
2018-05-26T00:32:53.456Z,16.50
2018-05-26T00:35:22.364Z,16.40
2018-05-26T00:37:51.163Z,16.40
2018-05-26T00:40:22.438Z,16.40
2018-05-26T00:42:50.088Z,16.40
2018-05-26T00:45:19.120Z,16.50
2018-05-26T00:47:47.756Z,16.50
2018-05-26T00:50:16.539Z,16.60
2018-05-26T00:52:44.182Z,16.50
2018-05-26T00:55:12.581Z,16.30
2018-05-26T00:57:40.220Z,16.30
2018-05-26T01:00:10.740Z,16.20
2018-05-26T01:02:39.149Z,16.00
2018-05-26T01:05:06.773Z,16.00
2018-05-26T01:07:34.409Z,16.00
2018-05-26T01:10:02.031Z,16.10
2018-05-26T01:12:31.679Z,16.10
2018-05-26T01:14:59.362Z,16.10
2018-05-26T01:17:27.021Z,16.00
2018-05-26T01:19:54.717Z,15.90
2018-05-26T01:22:24.353Z,15.90
2018-05-26T01:24:51.971Z,15.90
2018-05-26T01:27:21.290Z,15.90
2018-05-26T01:29:48.920Z,15.80
2018-05-26T01:32:18.865Z,15.90
2018-05-26T01:34:47.270Z,15.80
2018-05-26T01:37:15.786Z,15.80
2018-05-26T01:39:44.312Z,15.70
2018-05-26T01:42:12.458Z,15.70
2018-05-26T01:44:40.874Z,15.90
2018-05-26T01:47:09.325Z,15.90
2018-05-26T01:49:37.448Z,15.70
2018-05-26T01:52:05.086Z,15.70
2018-05-26T01:54:32.741Z,15.70
2018-05-26T01:57:01.225Z,15.70
2018-05-26T01:59:28.873Z,15.60
2018-05-26T02:01:57.252Z,15.60
2018-05-26T02:04:26.670Z,15.50
2018-05-26T02:06:54.279Z,15.50
2018-05-26T02:09:21.905Z,15.50
2018-05-26T02:11:49.544Z,15.40
2018-05-26T02:14:17.211Z,15.40
2018-05-26T02:16:45.574Z,15.40
2018-05-26T02:19:14.351Z,15.30
2018-05-26T02:21:43.403Z,15.30
2018-05-26T02:24:11.104Z,15.30
2018-05-26T02:26:38.715Z,15.40
2018-05-26T02:29:08.968Z,15.30
2018-05-26T02:31:36.584Z,15.30
2018-05-26T02:34:04.661Z,15.40
2018-05-26T02:36:32.757Z,15.30
2018-05-26T02:39:00.396Z,15.20
2018-05-26T02:41:28.979Z,15.10
2018-05-26T02:43:56.618Z,15.00
2018-05-26T02:46:25.667Z,14.80
2018-05-26T02:48:54.020Z,14.80
2018-05-26T02:51:21.646Z,14.80
2018-05-26T02:53:49.892Z,14.70
2018-05-26T02:56:19.755Z,14.70
2018-05-26T02:58:48.721Z,14.90
2018-05-26T03:01:17.638Z,14.80
2018-05-26T03:03:45.388Z,14.80
2018-05-26T03:06:20.101Z,14.70
2018-05-26T03:08:53.838Z,14.80
2018-05-26T03:11:28.577Z,14.80
2018-05-26T03:14:02.674Z,14.80
2018-05-26T03:16:31.152Z,14.70
2018-05-26T03:18:59.548Z,14.60
2018-05-26T03:21:29.853Z,14.60
2018-05-26T03:23:58.778Z,14.50
2018-05-26T03:26:26.707Z,14.50
2018-05-26T03:28:55.817Z,14.40
2018-05-26T03:31:25.572Z,14.30
2018-05-26T03:33:53.201Z,14.30
2018-05-26T03:36:23.282Z,14.50
2018-05-26T03:38:53.204Z,14.50
2018-05-26T03:41:21.615Z,14.50
2018-05-26T03:43:50.248Z,14.50
2018-05-26T03:46:17.855Z,14.50
2018-05-26T03:48:46.738Z,14.30
2018-05-26T03:51:15.115Z,14.20
2018-05-26T03:53:44.827Z,14.40
2018-05-26T03:56:35.836Z,14.60
2018-05-26T03:59:15.768Z,14.60
2018-05-26T04:01:43.371Z,14.90
2018-05-26T04:04:16.522Z,14.80
2018-05-26T04:06:44.148Z,14.90
2018-05-26T04:09:11.828Z,14.90
2018-05-26T04:11:40.272Z,15.00
2018-05-26T04:14:07.947Z,15.10
2018-05-26T04:16:36.286Z,15.20
2018-05-26T04:19:04.701Z,15.30
2018-05-26T04:21:32.417Z,15.30
2018-05-26T04:24:00.873Z,15.30
2018-05-26T04:26:28.488Z,15.30
2018-05-26T04:28:57.070Z,15.40
2018-05-26T04:31:25.961Z,15.50
2018-05-26T04:33:55.843Z,15.60
2018-05-26T04:36:24.643Z,15.60
2018-05-26T04:38:53.265Z,15.60
2018-05-26T04:41:21.412Z,15.80
2018-05-26T04:43:50.303Z,15.90
2018-05-26T04:46:18.692Z,16.10
2018-05-26T04:48:49.940Z,16.20
2018-05-26T04:51:19.673Z,16.20
2018-05-26T04:53:48.501Z,16.40
2018-05-26T04:56:16.188Z,16.50
2018-05-26T04:58:43.910Z,16.50
2018-05-26T05:01:11.808Z,16.60
2018-05-26T05:03:41.159Z,16.80
2018-05-26T05:06:10.599Z,16.90
2018-05-26T05:08:40.169Z,16.90
2018-05-26T05:11:11.048Z,17.00
2018-05-26T05:13:38.675Z,17.00
2018-05-26T05:16:06.375Z,17.00
2018-05-26T05:18:35.276Z,17.20
2018-05-26T05:21:03.612Z,17.50
2018-05-26T05:23:34.544Z,17.60
2018-05-26T05:26:04.336Z,17.70
2018-05-26T05:28:31.981Z,17.70
2018-05-26T05:31:00.432Z,18.00
2018-05-26T05:33:29.383Z,18.00
2018-05-26T05:35:58.522Z,18.40
2018-05-26T05:38:27.796Z,18.50
2018-05-26T05:40:56.207Z,18.60
2018-05-26T05:43:26.119Z,18.50
2018-05-26T05:45:56.165Z,18.60
2018-05-26T05:48:27.290Z,18.90
2018-05-26T05:50:55.392Z,19.00
2018-05-26T05:53:23.020Z,19.10
2018-05-26T05:55:51.809Z,19.40
2018-05-26T05:58:20.787Z,19.40
2018-05-26T06:00:50.410Z,19.70
2018-05-26T06:03:22.360Z,19.80
2018-05-26T06:05:52.244Z,19.90
2018-05-26T06:08:21.865Z,19.80
2018-05-26T06:10:49.526Z,20.00
2018-05-26T06:13:18.776Z,20.10
2018-05-26T06:15:47.330Z,20.20
2018-05-26T21:40:58.216Z,18.90
2018-05-26T21:48:28.194Z,18.80
2018-05-26T21:50:58.968Z,18.80
2018-05-26T21:53:29.283Z,18.70
2018-05-26T21:55:59.095Z,18.70
2018-05-26T21:58:28.679Z,18.80
2018-05-26T22:00:58.721Z,18.70
2018-05-26T22:03:27.111Z,18.80
2018-05-26T22:05:56.863Z,18.80
2018-05-26T22:08:28.078Z,18.80
2018-05-26T22:10:56.180Z,18.80
2018-05-26T22:13:23.820Z,18.90
2018-05-26T22:15:51.659Z,19.00
2018-05-26T22:18:21.366Z,19.00
2018-05-26T22:20:51.325Z,19.10
2018-05-26T22:23:19.388Z,19.00
2018-05-26T22:25:51.633Z,18.90
2018-05-26T22:28:20.625Z,18.90
2018-05-26T22:30:49.054Z,18.80
2018-05-26T22:33:17.071Z,18.80
2018-05-26T22:35:45.472Z,18.80
2018-05-26T22:38:14.360Z,18.80
2018-05-26T22:40:42.517Z,18.80
2018-05-26T22:43:10.965Z,19.00
2018-05-26T22:45:39.609Z,19.00
2018-05-26T22:48:07.270Z,18.90
2018-05-26T22:50:39.233Z,18.80
2018-05-26T22:53:09.446Z,18.60
2018-05-26T22:55:37.134Z,18.60
2018-05-26T22:58:04.924Z,18.60
2018-05-26T23:00:33.041Z,18.70
2018-05-26T23:03:01.958Z,18.60
2018-05-26T23:05:31.384Z,18.50
2018-05-26T23:07:59.931Z,18.50
2018-05-26T23:10:27.600Z,18.40
2018-05-26T23:12:55.852Z,18.50
2018-05-26T23:56:37.985Z,17.80
2018-05-26T23:59:05.906Z,17.90
